sensor_id;sensor_type;location;lat;lon;timestamp;pressure;altitude;pressure_sealevel;temperature;humidity
76448;BME280;65284;51.040;13.722;2023-05-07T00:01:36;100297.88;;;9.52;88.58
76448;BME280;65284;51.040;13.722;2023-05-07T00:04:03;100293.06;;;9.38;89.31
76448;BME280;65284;51.040;13.722;2023-05-07T00:06:29;100293.44;;;9.43;89.53
76448;BME280;65284;51.040;13.722;2023-05-07T00:08:57;100306.31;;;9.38;89.14
76448;BME280;65284;51.040;13.722;2023-05-07T00:11:24;100305.31;;;9.39;89.81
76448;BME280;65284;51.040;13.722;2023-05-07T00:13:50;100308.84;;;9.30;89.83
76448;BME280;65284;51.040;13.722;2023-05-07T00:16:17;100300.59;;;9.33;89.27
76448;BME280;65284;51.040;13.722;2023-05-07T00:18:43;100297.94;;;9.33;89.54
76448;BME280;65284;51.040;13.722;2023-05-07T00:21:10;100296.97;;;9.34;90.00
76448;BME280;65284;51.040;13.722;2023-05-07T00:23:37;100298.47;;;9.37;89.68
76448;BME280;65284;51.040;13.722;2023-05-07T00:26:03;100296.53;;;9.39;89.54
76448;BME280;65284;51.040;13.722;2023-05-07T00:28:30;100300.25;;;9.46;89.28
76448;BME280;65284;51.040;13.722;2023-05-07T00:30:56;100298.84;;;9.51;88.37
76448;BME280;65284;51.040;13.722;2023-05-07T00:33:23;100296.13;;;9.33;87.94
76448;BME280;65284;51.040;13.722;2023-05-07T00:35:50;100301.47;;;9.24;88.97
76448;BME280;65284;51.040;13.722;2023-05-07T00:38:16;100299.22;;;9.29;89.17
76448;BME280;65284;51.040;13.722;2023-05-07T00:40:43;100300.31;;;9.36;88.78
76448;BME280;65284;51.040;13.722;2023-05-07T00:43:09;100297.53;;;9.28;88.52
76448;BME280;65284;51.040;13.722;2023-05-07T00:45:36;100301.97;;;9.37;88.29
76448;BME280;65284;51.040;13.722;2023-05-07T00:48:03;100306.69;;;9.43;88.10
76448;BME280;65284;51.040;13.722;2023-05-07T00:50:30;100305.31;;;9.39;88.71
76448;BME280;65284;51.040;13.722;2023-05-07T00:52:57;100296.97;;;9.34;88.14
76448;BME280;65284;51.040;13.722;2023-05-07T00:55:24;100307.56;;;9.34;88.28
76448;BME280;65284;51.040;13.722;2023-05-07T00:57:51;100294.41;;;9.42;87.18
76448;BME280;65284;51.040;13.722;2023-05-07T01:00:18;100292.47;;;9.34;87.91
76448;BME280;65284;51.040;13.722;2023-05-07T01:02:45;100287.34;;;9.33;88.06
76448;BME280;65284;51.040;13.722;2023-05-07T01:05:15;100300.56;;;9.43;87.31
76448;BME280;65284;51.040;13.722;2023-05-07T01:07:44;100294.13;;;9.45;86.73
76448;BME280;65284;51.040;13.722;2023-05-07T01:10:11;100296.25;;;9.42;86.60
76448;BME280;65284;51.040;13.722;2023-05-07T01:12:40;100299.03;;;9.40;86.70
76448;BME280;65284;51.040;13.722;2023-05-07T01:15:08;100307.28;;;9.37;87.25
76448;BME280;65284;51.040;13.722;2023-05-07T01:17:39;100299.88;;;9.41;86.85
76448;BME280;65284;51.040;13.722;2023-05-07T01:20:08;100293.72;;;9.40;86.46
76448;BME280;65284;51.040;13.722;2023-05-07T01:22:36;100304.13;;;9.51;85.80
76448;BME280;65284;51.040;13.722;2023-05-07T01:25:04;100299.44;;;9.45;85.53
76448;BME280;65284;51.040;13.722;2023-05-07T01:27:31;100305.13;;;9.50;85.54
76448;BME280;65284;51.040;13.722;2023-05-07T01:29:59;100308.91;;;9.48;85.24
76448;BME280;65284;51.040;13.722;2023-05-07T01:32:52;100304.13;;;9.51;85.07
76448;BME280;65284;51.040;13.722;2023-05-07T01:35:22;100308.72;;;9.59;84.88
76448;BME280;65284;51.040;13.722;2023-05-07T01:37:50;100301.59;;;9.60;84.21
76448;BME280;65284;51.040;13.722;2023-05-07T01:40:17;100310.84;;;9.55;84.54
76448;BME280;65284;51.040;13.722;2023-05-07T01:42:45;100308.56;;;9.61;84.22
76448;BME280;65284;51.040;13.722;2023-05-07T01:45:12;100304.38;;;9.58;84.38
76448;BME280;65284;51.040;13.722;2023-05-07T01:47:39;100313.63;;;9.54;83.99
76448;BME280;65284;51.040;13.722;2023-05-07T01:50:06;100311.66;;;9.56;83.39
76448;BME280;65284;51.040;13.722;2023-05-07T01:52:36;100308.06;;;9.47;83.22
76448;BME280;65284;51.040;13.722;2023-05-07T01:55:04;100316.63;;;9.41;83.54
76448;BME280;65284;51.040;13.722;2023-05-07T01:57:31;100312.84;;;9.44;83.41
76448;BME280;65284;51.040;13.722;2023-05-07T01:59:57;100307.50;;;9.53;83.39
76448;BME280;65284;51.040;13.722;2023-05-07T02:02:23;100321.91;;;9.41;83.44
76448;BME280;65284;51.040;13.722;2023-05-07T02:04:50;100318.09;;;9.53;83.30
76448;BME280;65284;51.040;13.722;2023-05-07T02:07:17;100310.03;;;9.45;83.48
76448;BME280;65284;51.040;13.722;2023-05-07T02:09:43;100305.91;;;9.33;83.89
76448;BME280;65284;51.040;13.722;2023-05-07T02:12:09;100306.84;;;9.42;84.16
76448;BME280;65284;51.040;13.722;2023-05-07T02:14:36;100310.03;;;9.45;83.61
76448;BME280;65284;51.040;13.722;2023-05-07T02:17:02;100310.31;;;9.42;83.61
76448;BME280;65284;51.040;13.722;2023-05-07T02:19:29;100311.59;;;9.38;83.87
76448;BME280;65284;51.040;13.722;2023-05-07T02:21:55;100321.75;;;9.43;83.55
76448;BME280;65284;51.040;13.722;2023-05-07T02:24:21;100327.31;;;9.49;83.93
76448;BME280;65284;51.040;13.722;2023-05-07T02:26:48;100322.88;;;9.40;83.78
76448;BME280;65284;51.040;13.722;2023-05-07T02:29:15;100321.75;;;9.52;83.55
76448;BME280;65284;51.040;13.722;2023-05-07T02:31:41;100326.06;;;9.53;83.71
76448;BME280;65284;51.040;13.722;2023-05-07T02:34:08;100325.34;;;9.51;83.53
76448;BME280;65284;51.040;13.722;2023-05-07T02:36:34;100327.66;;;9.37;84.09
76448;BME280;65284;51.040;13.722;2023-05-07T02:39:01;100326.09;;;9.44;83.98
76448;BME280;65284;51.040;13.722;2023-05-07T02:41:28;100332.91;;;9.46;83.77
76448;BME280;65284;51.040;13.722;2023-05-07T02:43:55;100323.34;;;9.36;84.00
76448;BME280;65284;51.040;13.722;2023-05-07T02:46:22;100323.47;;;9.34;84.08
76448;BME280;65284;51.040;13.722;2023-05-07T02:48:48;100324.44;;;9.33;84.22
76448;BME280;65284;51.040;13.722;2023-05-07T02:51:19;100324.00;;;9.47;83.92
76448;BME280;65284;51.040;13.722;2023-05-07T02:53:49;100315.75;;;9.50;83.93
76448;BME280;65284;51.040;13.722;2023-05-07T02:56:15;100323.28;;;9.45;84.29
76448;BME280;65284;51.040;13.722;2023-05-07T02:58:42;100318.28;;;9.42;84.30
76448;BME280;65284;51.040;13.722;2023-05-07T03:01:08;100326.53;;;9.39;84.01
76448;BME280;65284;51.040;13.722;2023-05-07T03:03:35;100327.75;;;9.45;84.38
76448;BME280;65284;51.040;13.722;2023-05-07T03:06:01;100320.28;;;9.30;84.72
76448;BME280;65284;51.040;13.722;2023-05-07T03:08:28;100314.56;;;9.35;84.90
76448;BME280;65284;51.040;13.722;2023-05-07T03:10:54;100321.09;;;9.31;84.83
76448;BME280;65284;51.040;13.722;2023-05-07T03:13:21;100316.09;;;9.28;84.89
76448;BME280;65284;51.040;13.722;2023-05-07T03:15:47;100316.91;;;9.28;84.79
76448;BME280;65284;51.040;13.722;2023-05-07T03:18:14;100327.41;;;9.30;84.90
76448;BME280;65284;51.040;13.722;2023-05-07T03:20:40;100326.03;;;9.26;84.91
76448;BME280;65284;51.040;13.722;2023-05-07T03:23:07;100329.63;;;9.25;84.86
76448;BME280;65284;51.040;13.722;2023-05-07T03:25:33;100330.63;;;9.24;84.69
76448;BME280;65284;51.040;13.722;2023-05-07T03:28:00;100333.81;;;9.27;84.34
76448;BME280;65284;51.040;13.722;2023-05-07T03:30:27;100334.41;;;9.21;84.75
76448;BME280;65284;51.040;13.722;2023-05-07T03:32:53;100338.88;;;9.21;84.60
76448;BME280;65284;51.040;13.722;2023-05-07T03:35:20;100329.13;;;9.11;85.37
76448;BME280;65284;51.040;13.722;2023-05-07T03:37:46;100331.06;;;9.09;85.80
76448;BME280;65284;51.040;13.722;2023-05-07T03:40:13;100344.88;;;9.13;85.67
76448;BME280;65284;51.040;13.722;2023-05-07T03:42:40;100337.75;;;9.14;85.46
76448;BME280;65284;51.040;13.722;2023-05-07T03:45:07;100341.97;;;9.06;85.79
76448;BME280;65284;51.040;13.722;2023-05-07T03:47:34;100339.44;;;9.15;85.68
76448;BME280;65284;51.040;13.722;2023-05-07T03:50:00;100339.00;;;9.19;85.24
76448;BME280;65284;51.040;13.722;2023-05-07T03:52:27;100337.75;;;9.14;85.52
76448;BME280;65284;51.040;13.722;2023-05-07T03:54:53;100351.13;;;9.22;85.37
76448;BME280;65284;51.040;13.722;2023-05-07T03:57:20;100343.50;;;9.09;85.36
76448;BME280;65284;51.040;13.722;2023-05-07T03:59:46;100349.63;;;9.09;85.45
76448;BME280;65284;51.040;13.722;2023-05-07T04:02:13;100346.56;;;9.04;85.97
76448;BME280;65284;51.040;13.722;2023-05-07T04:04:39;100345.31;;;9.08;85.53
76448;BME280;65284;51.040;13.722;2023-05-07T04:07:06;100340.16;;;9.07;86.07
76448;BME280;65284;51.040;13.722;2023-05-07T04:09:33;100336.66;;;9.06;85.86
76448;BME280;65284;51.040;13.722;2023-05-07T04:11:59;100342.25;;;9.03;85.99
76448;BME280;65284;51.040;13.722;2023-05-07T04:14:27;100344.44;;;9.08;85.88
76448;BME280;65284;51.040;13.722;2023-05-07T04:16:53;100342.66;;;9.08;86.01
76448;BME280;65284;51.040;13.722;2023-05-07T04:19:20;100361.34;;;9.07;85.98
76448;BME280;65284;51.040;13.722;2023-05-07T04:21:47;100352.84;;;9.03;86.10
76448;BME280;65284;51.040;13.722;2023-05-07T04:24:13;100355.22;;;9.06;86.37
76448;BME280;65284;51.040;13.722;2023-05-07T04:26:40;100352.44;;;8.98;86.59
76448;BME280;65284;51.040;13.722;2023-05-07T04:29:06;100360.91;;;9.02;86.51
76448;BME280;65284;51.040;13.722;2023-05-07T04:31:33;100367.63;;;9.06;86.08
76448;BME280;65284;51.040;13.722;2023-05-07T04:33:59;100365.81;;;9.06;86.01
76448;BME280;65284;51.040;13.722;2023-05-07T04:36:26;100372.78;;;9.07;86.11
76448;BME280;65284;51.040;13.722;2023-05-07T04:38:53;100374.56;;;9.26;85.45
76448;BME280;65284;51.040;13.722;2023-05-07T04:41:20;100373.31;;;9.21;84.89
76448;BME280;65284;51.040;13.722;2023-05-07T04:43:47;100373.72;;;9.16;85.46
76448;BME280;65284;51.040;13.722;2023-05-07T04:46:13;100385.72;;;9.10;85.10
76448;BME280;65284;51.040;13.722;2023-05-07T04:48:40;100387.28;;;9.03;85.39
76448;BME280;65284;51.040;13.722;2023-05-07T04:51:07;100387.13;;;9.05;85.16
76448;BME280;65284;51.040;13.722;2023-05-07T04:53:33;100396.63;;;9.07;85.08
76448;BME280;65284;51.040;13.722;2023-05-07T04:56:00;100388.97;;;9.14;84.77
76448;BME280;65284;51.040;13.722;2023-05-07T04:58:26;100393.84;;;9.09;85.05
76448;BME280;65284;51.040;13.722;2023-05-07T05:00:53;100396.03;;;9.14;84.80
76448;BME280;65284;51.040;13.722;2023-05-07T05:03:19;100399.69;;;9.13;84.87
76448;BME280;65284;51.040;13.722;2023-05-07T05:05:49;100398.41;;;9.17;84.62
76448;BME280;65284;51.040;13.722;2023-05-07T05:08:15;100402.88;;;9.26;84.34
76448;BME280;65284;51.040;13.722;2023-05-07T05:10:42;100401.59;;;9.30;84.07
76448;BME280;65284;51.040;13.722;2023-05-07T05:13:09;100398.00;;;9.21;84.34
76448;BME280;65284;51.040;13.722;2023-05-07T05:15:38;100393.50;;;9.41;83.52
76448;BME280;65284;51.040;13.722;2023-05-07T05:18:05;100395.59;;;9.28;83.63
76448;BME280;65284;51.040;13.722;2023-05-07T05:20:31;100392.16;;;9.18;83.84
76448;BME280;65284;51.040;13.722;2023-05-07T05:22:58;100393.41;;;9.14;84.11
76448;BME280;65284;51.040;13.722;2023-05-07T05:25:24;100398.41;;;9.17;83.97
76448;BME280;65284;51.040;13.722;2023-05-07T05:27:51;100400.50;;;9.13;84.16
76448;BME280;65284;51.040;13.722;2023-05-07T05:30:17;100409.97;;;9.25;83.75
76448;BME280;65284;51.040;13.722;2023-05-07T05:32:45;100403.84;;;9.25;83.52
76448;BME280;65284;51.040;13.722;2023-05-07T05:35:12;100406.22;;;9.18;83.37
76448;BME280;65284;51.040;13.722;2023-05-07T05:37:39;100410.53;;;9.19;83.52
76448;BME280;65284;51.040;13.722;2023-05-07T05:40:06;100420.03;;;9.22;83.30
76448;BME280;65284;51.040;13.722;2023-05-07T05:42:32;100416.28;;;9.15;83.76
76448;BME280;65284;51.040;13.722;2023-05-07T05:44:59;100418.09;;;9.14;83.83
76448;BME280;65284;51.040;13.722;2023-05-07T05:47:25;100427.72;;;9.05;84.16
76448;BME280;65284;51.040;13.722;2023-05-07T05:49:52;100422.81;;;9.10;84.48
76448;BME280;65284;51.040;13.722;2023-05-07T05:52:18;100432.03;;;9.16;84.16
76448;BME280;65284;51.040;13.722;2023-05-07T05:54:44;100437.06;;;9.09;83.95
76448;BME280;65284;51.040;13.722;2023-05-07T05:57:11;100432.88;;;9.07;84.34
76448;BME280;65284;51.040;13.722;2023-05-07T05:59:37;100435.38;;;8.99;84.58
76448;BME280;65284;51.040;13.722;2023-05-07T06:02:04;100435.09;;;9.02;84.70
76448;BME280;65284;51.040;13.722;2023-05-07T06:04:30;100438.47;;;9.04;84.40
76448;BME280;65284;51.040;13.722;2023-05-07T06:06:57;100438.91;;;8.99;84.64
76448;BME280;65284;51.040;13.722;2023-05-07T06:09:23;100446.28;;;9.05;84.08
76448;BME280;65284;51.040;13.722;2023-05-07T06:11:50;100459.53;;;9.05;83.79
76448;BME280;65284;51.040;13.722;2023-05-07T06:14:16;100451.44;;;8.97;83.28
76448;BME280;65284;51.040;13.722;2023-05-07T06:16:43;100463.84;;;9.06;82.28
76448;BME280;65284;51.040;13.722;2023-05-07T06:19:10;100455.19;;;9.04;82.22
76448;BME280;65284;51.040;13.722;2023-05-07T06:21:36;100461.59;;;9.02;82.30
76448;BME280;65284;51.040;13.722;2023-05-07T06:24:03;100462.84;;;9.07;82.23
76448;BME280;65284;51.040;13.722;2023-05-07T06:26:29;100467.47;;;9.15;82.06
76448;BME280;65284;51.040;13.722;2023-05-07T06:28:56;100469.13;;;9.16;82.21
76448;BME280;65284;51.040;13.722;2023-05-07T06:31:22;100465.53;;;9.17;81.39
76448;BME280;65284;51.040;13.722;2023-05-07T06:33:49;100458.13;;;9.21;80.95
76448;BME280;65284;51.040;13.722;2023-05-07T06:36:16;100449.59;;;9.27;80.84
76448;BME280;65284;51.040;13.722;2023-05-07T06:38:42;100452.97;;;9.29;80.73
76448;BME280;65284;51.040;13.722;2023-05-07T06:41:09;100458.81;;;9.32;80.37
76448;BME280;65284;51.040;13.722;2023-05-07T06:43:35;100463.53;;;9.39;80.07
76448;BME280;65284;51.040;13.722;2023-05-07T06:46:02;100468.69;;;9.40;80.00
76448;BME280;65284;51.040;13.722;2023-05-07T06:48:28;100475.09;;;9.47;79.96
76448;BME280;65284;51.040;13.722;2023-05-07T06:50:55;100474.94;;;9.49;79.80
76448;BME280;65284;51.040;13.722;2023-05-07T06:53:24;100475.53;;;9.52;79.64
76448;BME280;65284;51.040;13.722;2023-05-07T06:55:51;100467.41;;;9.54;79.75
76448;BME280;65284;51.040;13.722;2023-05-07T06:58:18;100471.31;;;9.60;79.28
76448;BME280;65284;51.040;13.722;2023-05-07T07:00:44;100485.56;;;9.59;79.41
76448;BME280;65284;51.040;13.722;2023-05-07T07:03:12;100479.56;;;9.56;79.43
76448;BME280;65284;51.040;13.722;2023-05-07T07:05:41;100484.69;;;9.68;79.25
76448;BME280;65284;51.040;13.722;2023-05-07T07:08:07;100478.56;;;9.57;79.82
76448;BME280;65284;51.040;13.722;2023-05-07T07:10:33;100478.25;;;9.80;80.48
76448;BME280;65284;51.040;13.722;2023-05-07T07:13:00;100472.06;;;9.89;79.96
76448;BME280;65284;51.040;13.722;2023-05-07T07:15:26;100483.47;;;9.99;79.42
76448;BME280;65284;51.040;13.722;2023-05-07T07:17:53;100482.13;;;9.76;79.95
76448;BME280;65284;51.040;13.722;2023-05-07T07:20:19;100482.72;;;9.70;80.73
76448;BME280;65284;51.040;13.722;2023-05-07T07:22:46;100489.44;;;9.74;80.78
76448;BME280;65284;51.040;13.722;2023-05-07T07:25:12;100484.78;;;9.76;80.17
76448;BME280;65284;51.040;13.722;2023-05-07T07:27:38;100492.22;;;9.63;80.11
76448;BME280;65284;51.040;13.722;2023-05-07T07:30:07;100489.84;;;9.69;79.75
76448;BME280;65284;51.040;13.722;2023-05-07T07:32:34;100485.53;;;9.68;79.25
76448;BME280;65284;51.040;13.722;2023-05-07T07:35:01;100498.06;;;9.76;79.09
76448;BME280;65284;51.040;13.722;2023-05-07T07:37:28;100498.34;;;9.73;78.28
76448;BME280;65284;51.040;13.722;2023-05-07T07:39:55;100490.66;;;9.70;78.12
76448;BME280;65284;51.040;13.722;2023-05-07T07:42:21;100491.91;;;9.85;77.36
76448;BME280;65284;51.040;13.722;2023-05-07T07:44:48;100495.34;;;9.95;77.12
76448;BME280;65284;51.040;13.722;2023-05-07T07:47:14;100494.69;;;9.84;77.24
76448;BME280;65284;51.040;13.722;2023-05-07T07:49:41;100502.97;;;9.71;78.51
76448;BME280;65284;51.040;13.722;2023-05-07T07:52:07;100503.22;;;9.77;78.42
76448;BME280;65284;51.040;13.722;2023-05-07T07:54:34;100502.97;;;9.71;78.15
76448;BME280;65284;51.040;13.722;2023-05-07T07:57:00;100511.47;;;9.74;77.77
76448;BME280;65284;51.040;13.722;2023-05-07T07:59:27;100506.47;;;9.71;77.69
76448;BME280;65284;51.040;13.722;2023-05-07T08:01:57;100505.34;;;9.74;77.30
76448;BME280;65284;51.040;13.722;2023-05-07T08:04:23;100517.91;;;9.72;77.50
76448;BME280;65284;51.040;13.722;2023-05-07T08:06:50;100513.97;;;9.76;77.32
76448;BME280;65284;51.040;13.722;2023-05-07T08:09:16;100511.75;;;9.71;77.36
76448;BME280;65284;51.040;13.722;2023-05-07T08:11:43;100519.28;;;9.76;77.41
76448;BME280;65284;51.040;13.722;2023-05-07T08:14:09;100519.84;;;9.70;77.65
76448;BME280;65284;51.040;13.722;2023-05-07T08:16:36;100518.47;;;9.66;77.67
76448;BME280;65284;51.040;13.722;2023-05-07T08:19:02;100519.97;;;9.78;77.45
76448;BME280;65284;51.040;13.722;2023-05-07T08:21:29;100524.03;;;9.72;77.74
76448;BME280;65284;51.040;13.722;2023-05-07T08:23:59;100521.25;;;9.74;77.39
76448;BME280;65284;51.040;13.722;2023-05-07T08:26:25;100527.06;;;9.87;77.11
76448;BME280;65284;51.040;13.722;2023-05-07T08:28:52;100533.78;;;9.91;77.06
76448;BME280;65284;51.040;13.722;2023-05-07T08:31:18;100529.72;;;9.87;76.31
76448;BME280;65284;51.040;13.722;2023-05-07T08:33:45;100526.50;;;9.93;76.22
76448;BME280;65284;51.040;13.722;2023-05-07T08:36:11;100525.09;;;9.99;76.41
76448;BME280;65284;51.040;13.722;2023-05-07T08:38:38;100522.97;;;10.02;75.79
76448;BME280;65284;51.040;13.722;2023-05-07T08:41:09;100528.53;;;10.19;75.84
76448;BME280;65284;51.040;13.722;2023-05-07T08:43:37;100526.16;;;10.16;75.44
76448;BME280;65284;51.040;13.722;2023-05-07T08:46:04;100530.63;;;10.15;75.62
76448;BME280;65284;51.040;13.722;2023-05-07T08:48:35;100531.72;;;10.22;75.44
76448;BME280;65284;51.040;13.722;2023-05-07T08:51:02;100530.59;;;10.25;75.38
76448;BME280;65284;51.040;13.722;2023-05-07T08:53:28;100535.06;;;10.34;75.01
76448;BME280;65284;51.040;13.722;2023-05-07T08:55:55;100537.53;;;10.45;74.98
76448;BME280;65284;51.040;13.722;2023-05-07T08:58:22;100534.09;;;10.63;74.57
76448;BME280;65284;51.040;13.722;2023-05-07T09:00:48;100543.13;;;10.70;74.12
76448;BME280;65284;51.040;13.722;2023-05-07T09:03:16;100547.75;;;10.68;74.24
76448;BME280;65284;51.040;13.722;2023-05-07T09:05:43;100541.66;;;10.58;74.20
76448;BME280;65284;51.040;13.722;2023-05-07T09:08:14;100547.25;;;10.55;74.05
76448;BME280;65284;51.040;13.722;2023-05-07T09:10:41;100545.13;;;10.58;74.08
76448;BME280;65284;51.040;13.722;2023-05-07T09:13:07;100553.75;;;10.42;74.81
76448;BME280;65284;51.040;13.722;2023-05-07T09:15:34;100554.88;;;10.40;75.22
76448;BME280;65284;51.040;13.722;2023-05-07T09:18:01;100561.53;;;10.54;74.80
76448;BME280;65284;51.040;13.722;2023-05-07T09:20:30;100552.81;;;10.61;74.52
76448;BME280;65284;51.040;13.722;2023-05-07T09:22:56;100557.19;;;10.80;74.13
76448;BME280;65284;51.040;13.722;2023-05-07T09:25:30;100553.84;;;10.78;73.52
76448;BME280;65284;51.040;13.722;2023-05-07T09:27:56;100554.13;;;10.75;73.10
76448;BME280;65284;51.040;13.722;2023-05-07T09:30:27;100558.75;;;10.73;73.39
76448;BME280;65284;51.040;13.722;2023-05-07T09:32:54;100554.34;;;10.64;73.69
76448;BME280;65284;51.040;13.722;2023-05-07T09:35:20;100558.38;;;10.68;73.96
76448;BME280;65284;51.040;13.722;2023-05-07T09:37:57;100562.25;;;10.74;73.81
76448;BME280;65284;51.040;13.722;2023-05-07T09:40:27;100554.34;;;10.64;73.33
76448;BME280;65284;51.040;13.722;2023-05-07T09:42:54;100558.69;;;10.65;73.34
76448;BME280;65284;51.040;13.722;2023-05-07T09:45:27;100554.19;;;10.65;73.74
76448;BME280;65284;51.040;13.722;2023-05-07T09:47:56;100558.38;;;10.68;73.23
76448;BME280;65284;51.040;13.722;2023-05-07T09:50:29;100561.34;;;10.65;73.17
76448;BME280;65284;51.040;13.722;2023-05-07T09:52:57;100565.75;;;10.74;72.74
76448;BME280;65284;51.040;13.722;2023-05-07T09:55:23;100559.31;;;10.77;72.45
76448;BME280;65284;51.040;13.722;2023-05-07T09:57:51;100560.22;;;10.85;71.79
76448;BME280;65284;51.040;13.722;2023-05-07T10:00:19;100555.69;;;10.96;71.38
76448;BME280;65284;51.040;13.722;2023-05-07T10:02:52;100562.06;;;11.03;70.27
76448;BME280;65284;51.040;13.722;2023-05-07T10:05:19;100553.19;;;11.12;69.83
76448;BME280;65284;51.040;13.722;2023-05-07T10:07:48;100560.03;;;11.14;69.89
76448;BME280;65284;51.040;13.722;2023-05-07T10:10:15;100571.50;;;11.15;70.22
76448;BME280;65284;51.040;13.722;2023-05-07T10:12:43;100560.94;;;11.05;71.25
76448;BME280;65284;51.040;13.722;2023-05-07T10:15:10;100565.03;;;11.00;71.73
76448;BME280;65284;51.040;13.722;2023-05-07T10:17:39;100561.31;;;10.92;71.33
76448;BME280;65284;51.040;13.722;2023-05-07T10:20:07;100566.63;;;10.92;71.01
76448;BME280;65284;51.040;13.722;2023-05-07T10:22:46;100565.44;;;11.05;70.80
76448;BME280;65284;51.040;13.722;2023-05-07T10:25:18;100568.84;;;11.15;70.62
76448;BME280;65284;51.040;13.722;2023-05-07T10:27:46;100566.66;;;11.28;70.06
76448;BME280;65284;51.040;13.722;2023-05-07T10:33:05;100565.97;;;11.26;69.66
76448;BME280;65284;51.040;13.722;2023-05-07T10:35:42;100563.69;;;11.31;69.88
76448;BME280;65284;51.040;13.722;2023-05-07T10:38:09;100564.38;;;11.33;70.01
76448;BME280;65284;51.040;13.722;2023-05-07T10:40:36;100558.28;;;11.41;69.92
76448;BME280;65284;51.040;13.722;2023-05-07T10:43:04;100559.28;;;11.40;69.38
76448;BME280;65284;51.040;13.722;2023-05-07T10:45:35;100564.44;;;11.42;69.15
76448;BME280;65284;51.040;13.722;2023-05-07T10:48:14;100558.06;;;11.34;69.46
76448;BME280;65284;51.040;13.722;2023-05-07T10:50:44;100556.84;;;11.47;69.33
76448;BME280;65284;51.040;13.722;2023-05-07T10:55:50;100549.13;;;11.79;68.00
76448;BME280;65284;51.040;13.722;2023-05-07T10:58:29;100544.41;;;11.73;67.76
76448;BME280;65284;51.040;13.722;2023-05-07T11:01:01;100548.78;;;11.74;67.69
76448;BME280;65284;51.040;13.722;2023-05-07T11:03:28;100547.97;;;11.82;67.03
76448;BME280;65284;51.040;13.722;2023-05-07T11:06:11;100554.09;;;11.92;66.37
76448;BME280;65284;51.040;13.722;2023-05-07T11:08:57;100552.78;;;11.96;66.33
76448;BME280;65284;51.040;13.722;2023-05-07T11:11:46;100548.66;;;12.02;66.59
76448;BME280;65284;51.040;13.722;2023-05-07T11:14:14;100553.28;;;12.00;66.38
76448;BME280;65284;51.040;13.722;2023-05-07T11:17:02;100551.03;;;11.87;66.42
76448;BME280;65284;51.040;13.722;2023-05-07T11:19:49;100550.50;;;11.83;66.59
76448;BME280;65284;51.040;13.722;2023-05-07T11:22:36;100547.38;;;11.88;67.05
76448;BME280;65284;51.040;13.722;2023-05-07T11:25:06;100547.91;;;11.92;66.48
76448;BME280;65284;51.040;13.722;2023-05-07T11:27:33;100543.44;;;11.92;66.70
76448;BME280;65284;51.040;13.722;2023-05-07T11:30:00;100546.00;;;11.84;66.79
76448;BME280;65284;51.040;13.722;2023-05-07T11:32:31;100547.38;;;11.88;66.73
76448;BME280;65284;51.040;13.722;2023-05-07T11:34:59;100536.50;;;11.81;66.91
76448;BME280;65284;51.040;13.722;2023-05-07T11:37:27;100546.84;;;11.84;66.92
76448;BME280;65284;51.040;13.722;2023-05-07T11:40:05;100552.72;;;11.88;67.10
76448;BME280;65284;51.040;13.722;2023-05-07T11:42:34;100540.59;;;11.94;66.94
76448;BME280;65284;51.040;13.722;2023-05-07T11:45:01;100539.28;;;11.98;66.87
76448;BME280;65284;51.040;13.722;2023-05-07T11:47:30;100542.69;;;12.08;67.08
76448;BME280;65284;51.040;13.722;2023-05-07T11:50:02;100544.91;;;12.13;66.54
76448;BME280;65284;51.040;13.722;2023-05-07T11:52:29;100552.06;;;12.20;66.48
76448;BME280;65284;51.040;13.722;2023-05-07T11:54:57;100548.47;;;12.29;66.40
76448;BME280;65284;51.040;13.722;2023-05-07T11:57:24;100549.16;;;12.32;66.70
76448;BME280;65284;51.040;13.722;2023-05-07T11:59:54;100553.16;;;12.36;66.14
76448;BME280;65284;51.040;13.722;2023-05-07T12:02:21;100551.13;;;12.29;65.84
76448;BME280;65284;51.040;13.722;2023-05-07T12:04:48;100557.81;;;12.34;66.25
76448;BME280;65284;51.040;13.722;2023-05-07T12:07:15;100554.03;;;12.44;66.49
76448;BME280;65284;51.040;13.722;2023-05-07T12:09:42;100544.25;;;12.53;66.25
76448;BME280;65284;51.040;13.722;2023-05-07T12:12:09;100547.63;;;12.71;65.85
76448;BME280;65284;51.040;13.722;2023-05-07T12:14:39;100546.13;;;12.61;65.62
76448;BME280;65284;51.040;13.722;2023-05-07T12:17:11;100551.28;;;12.62;65.56
76448;BME280;65284;51.040;13.722;2023-05-07T12:19:39;100554.34;;;12.84;64.97
76448;BME280;65284;51.040;13.722;2023-05-07T12:22:10;100551.28;;;12.62;65.43
76448;BME280;65284;51.040;13.722;2023-05-07T12:24:56;100558.59;;;12.60;66.00
76448;BME280;65284;51.040;13.722;2023-05-07T12:27:23;100557.56;;;12.53;66.03
76448;BME280;65284;51.040;13.722;2023-05-07T12:29:50;100567.53;;;12.51;65.83
76448;BME280;65284;51.040;13.722;2023-05-07T12:32:19;100569.38;;;12.50;65.83
76448;BME280;65284;51.040;13.722;2023-05-07T12:34:46;100565.22;;;12.56;66.02
76448;BME280;65284;51.040;13.722;2023-05-07T12:37:13;100573.22;;;12.56;65.54
76448;BME280;65284;51.040;13.722;2023-05-07T12:39:49;100567.91;;;12.56;65.58
76448;BME280;65284;51.040;13.722;2023-05-07T12:42:16;100564.78;;;12.61;65.37
76448;BME280;65284;51.040;13.722;2023-05-07T12:44:46;100555.78;;;12.62;65.36
76448;BME280;65284;51.040;13.722;2023-05-07T12:47:12;100559.94;;;12.64;65.54
76448;BME280;65284;51.040;13.722;2023-05-07T12:49:41;100563.41;;;12.57;65.45
76448;BME280;65284;51.040;13.722;2023-05-07T12:52:08;100569.38;;;12.50;65.48
76448;BME280;65284;51.040;13.722;2023-05-07T12:54:38;100563.94;;;12.60;65.54
76448;BME280;65284;51.040;13.722;2023-05-07T12:57:07;100554.63;;;12.64;65.40